createdAt,value
2023-05-17T00:00:07.506Z,0
2023-05-17T00:03:07.799Z,0
2023-05-17T00:06:07.729Z,0
2023-05-17T00:09:07.506Z,0
2023-05-17T00:12:07.520Z,0
2023-05-17T00:15:07.369Z,0
2023-05-17T00:18:07.949Z,0
2023-05-17T00:21:07.385Z,0
2023-05-17T00:24:07.467Z,0
2023-05-17T00:27:07.388Z,0
2023-05-17T00:30:07.433Z,0
2023-05-17T00:33:07.739Z,0
2023-05-17T00:36:07.437Z,0
2023-05-17T00:39:07.500Z,0
2023-05-17T00:42:07.432Z,0
2023-05-17T00:45:07.672Z,0
2023-05-17T00:48:07.994Z,0
2023-05-17T00:51:07.433Z,0
2023-05-17T00:54:07.494Z,0
2023-05-17T00:57:07.412Z,0
2023-05-17T01:00:07.550Z,0
2023-05-17T01:03:07.957Z,0
2023-05-17T01:06:07.456Z,0
2023-05-17T01:09:07.512Z,0
2023-05-17T01:12:07.373Z,0
2023-05-17T01:15:07.522Z,0
2023-05-17T01:18:08.148Z,0
2023-05-17T01:21:07.408Z,0
2023-05-17T01:24:07.452Z,0
2023-05-17T01:27:07.525Z,0
2023-05-17T01:30:07.436Z,0
2023-05-17T01:33:07.879Z,0
2023-05-17T01:36:07.491Z,0
2023-05-17T01:39:07.486Z,0
2023-05-17T01:42:07.453Z,0
2023-05-17T01:45:07.449Z,0
2023-05-17T01:48:08.071Z,0
2023-05-17T01:51:07.495Z,0
2023-05-17T01:54:07.537Z,0
2023-05-17T01:57:07.454Z,0
2023-05-17T02:00:07.578Z,0
2023-05-17T02:03:07.624Z,0
2023-05-17T02:06:07.419Z,0
2023-05-17T02:09:07.683Z,0
2023-05-17T02:12:07.588Z,0
2023-05-17T02:15:07.401Z,0
2023-05-17T02:18:07.843Z,0
2023-05-17T02:21:07.471Z,0
2023-05-17T02:24:07.456Z,0
2023-05-17T02:27:07.466Z,0
2023-05-17T02:30:07.628Z,0
2023-05-17T02:33:08.047Z,0
2023-05-17T02:36:07.465Z,0
2023-05-17T02:39:07.437Z,0
2023-05-17T02:42:07.406Z,3
2023-05-17T02:45:07.443Z,3
2023-05-17T02:48:07.773Z,3
2023-05-17T02:51:07.587Z,7
2023-05-17T02:54:07.524Z,10
2023-05-17T02:57:07.512Z,13
2023-05-17T03:00:07.925Z,20
2023-05-17T03:03:07.840Z,30
2023-05-17T03:06:07.573Z,43
2023-05-17T03:09:07.511Z,63
2023-05-17T03:12:07.389Z,60
2023-05-17T03:15:07.475Z,90
2023-05-17T03:18:07.921Z,140
2023-05-17T03:21:07.463Z,167
2023-05-17T03:24:07.545Z,223
2023-05-17T03:27:07.510Z,303
2023-05-17T03:30:07.715Z,427
2023-05-17T03:33:07.838Z,493
2023-05-17T03:36:07.506Z,597
2023-05-17T03:39:07.677Z,687
2023-05-17T03:42:07.745Z,793
2023-05-17T03:45:07.517Z,933
2023-05-17T03:48:07.900Z,1147
2023-05-17T03:51:07.559Z,1227
2023-05-17T03:54:07.711Z,1473
2023-05-17T03:57:07.606Z,1363
2023-05-17T04:00:08.132Z,1540
2023-05-17T04:03:07.844Z,1630
2023-05-17T04:06:07.864Z,1770
2023-05-17T04:09:07.526Z,1930
2023-05-17T04:12:07.655Z,2113
2023-05-17T04:15:07.487Z,2637
2023-05-17T04:18:08.269Z,2987
2023-05-17T04:21:07.629Z,3233
2023-05-17T04:24:07.925Z,3520
2023-05-17T04:27:10.241Z,3490
2023-05-17T04:30:08.028Z,3650
2023-05-17T04:33:08.529Z,4007
2023-05-17T04:36:07.704Z,4030
2023-05-17T04:39:07.529Z,4307
2023-05-17T04:42:07.645Z,4343
2023-05-17T04:45:07.933Z,5657
2023-05-17T04:48:07.943Z,6803
2023-05-17T04:51:07.785Z,5903
2023-05-17T04:54:07.613Z,5800
2023-05-17T04:57:07.600Z,5450
2023-05-17T05:00:07.994Z,4130
2023-05-17T05:03:08.136Z,4893
2023-05-17T05:06:07.575Z,6777
2023-05-17T05:09:07.722Z,8177
2023-05-17T05:12:07.601Z,7390
2023-05-17T05:15:08.019Z,8270
2023-05-17T05:18:08.201Z,8527
2023-05-17T05:21:07.659Z,7747
2023-05-17T05:24:07.622Z,8313
2023-05-17T05:27:11.150Z,7053
2023-05-17T05:30:08.336Z,11013
2023-05-17T05:33:08.272Z,12123
2023-05-17T05:36:07.598Z,10767
2023-05-17T05:39:09.440Z,10027
2023-05-17T05:42:07.840Z,12277
2023-05-17T05:45:07.638Z,10033
2023-05-17T05:48:08.143Z,11027
2023-05-17T05:51:07.478Z,11617
2023-05-17T05:54:08.115Z,13120
2023-05-17T05:57:07.650Z,13807
2023-05-17T06:00:07.778Z,14823
2023-05-17T06:03:07.860Z,15373
2023-05-17T06:06:08.027Z,12903
2023-05-17T06:09:07.610Z,17543
2023-05-17T06:12:07.678Z,13610
2023-05-17T06:15:07.653Z,17300
2023-05-17T06:18:08.081Z,11587
2023-05-17T06:21:07.533Z,10403
2023-05-17T06:24:11.570Z,14977
2023-05-17T06:27:07.660Z,13110
2023-05-17T06:30:10.832Z,15430
2023-05-17T06:33:08.310Z,19153
2023-05-17T06:39:07.586Z,11133
2023-05-17T06:42:07.667Z,9683
2023-05-17T06:45:07.630Z,9683
2023-05-17T06:48:08.342Z,12307
2023-05-17T06:51:07.569Z,14423
2023-05-17T06:54:07.620Z,22350
2023-05-17T06:57:07.655Z,12730
2023-05-17T07:00:08.230Z,13960
2023-05-17T07:03:08.316Z,14040
2023-05-17T07:06:07.720Z,12203
2023-05-17T07:09:07.437Z,12670
2023-05-17T07:12:07.689Z,23120
2023-05-17T07:15:07.803Z,14377
2023-05-17T07:18:08.080Z,28390
2023-05-17T07:21:07.637Z,16587
2023-05-17T07:24:07.654Z,14180
2023-05-17T07:27:07.666Z,14610
2023-05-17T07:30:07.713Z,12330
2023-05-17T07:33:07.790Z,15287
2023-05-17T07:36:07.553Z,14753
2023-05-17T07:39:07.643Z,11193
2023-05-17T07:42:11.051Z,12790
2023-05-17T07:45:07.667Z,16640
2023-05-17T07:48:08.048Z,23077
2023-05-17T07:51:07.618Z,18017
2023-05-17T07:54:07.696Z,16140
2023-05-17T07:57:07.563Z,15617
2023-05-17T08:00:07.682Z,18987
2023-05-17T08:03:07.732Z,28890
2023-05-17T08:06:07.794Z,15643
2023-05-17T08:09:07.444Z,14217
2023-05-17T08:12:08.728Z,13800
2023-05-17T08:15:07.841Z,39687
2023-05-17T08:18:11.840Z,45557
2023-05-17T08:21:07.472Z,24690
2023-05-17T08:24:10.821Z,25050
2023-05-17T08:27:07.534Z,22203
2023-05-17T08:30:21.661Z,34863
2023-05-17T08:33:08.078Z,61700
2023-05-17T08:36:07.512Z,36087
2023-05-17T08:39:07.389Z,64033
2023-05-17T08:42:07.608Z,21043
2023-05-17T08:45:07.457Z,19197
2023-05-17T08:48:08.033Z,18763
2023-05-17T08:51:07.409Z,19370
2023-05-17T08:54:07.562Z,68737
2023-05-17T08:57:07.483Z,36050
2023-05-17T09:00:07.844Z,72613
2023-05-17T09:03:08.049Z,31980
2023-05-17T09:06:08.425Z,31433
2023-05-17T09:09:07.703Z,22977
2023-05-17T09:12:07.617Z,22770
2023-05-17T09:15:07.642Z,23303
2023-05-17T09:18:08.030Z,25443
2023-05-17T09:21:07.748Z,21163
2023-05-17T09:24:14.860Z,21570
2023-05-17T09:27:07.447Z,23603
2023-05-17T09:30:07.704Z,43357
2023-05-17T09:33:07.661Z,28310
2023-05-17T09:36:07.528Z,35710
2023-05-17T09:39:07.682Z,36690
2023-05-17T09:42:07.473Z,41577
2023-05-17T09:45:07.555Z,33760
2023-05-17T09:48:07.869Z,20807
2023-05-17T09:51:07.567Z,18047
2023-05-17T09:54:07.591Z,17970
2023-05-17T09:57:07.526Z,21653
2023-05-17T10:00:07.707Z,30290
2023-05-17T10:03:07.936Z,31900
2023-05-17T10:06:07.531Z,34153
2023-05-17T10:09:07.563Z,32580
2023-05-17T10:12:07.472Z,37563
2023-05-17T10:15:07.998Z,84197
2023-05-17T10:18:07.920Z,67370
2023-05-17T10:21:07.765Z,25273
2023-05-17T10:24:07.539Z,88083
2023-05-17T10:27:07.538Z,68247
2023-05-17T10:30:08.073Z,31010
2023-05-17T10:33:08.165Z,85383
2023-05-17T10:36:07.626Z,78647
2023-05-17T10:39:07.696Z,89923
2023-05-17T10:42:22.043Z,28073
2023-05-17T10:45:07.551Z,25257
2023-05-17T10:48:08.394Z,34867
2023-05-17T10:51:08.791Z,34800
2023-05-17T10:54:07.665Z,37373
2023-05-17T10:57:10.017Z,33863
2023-05-17T11:00:07.723Z,50180
2023-05-17T11:03:07.689Z,33793
2023-05-17T11:06:22.425Z,58930
2023-05-17T11:09:07.634Z,20543
2023-05-17T11:12:07.774Z,44437
2023-05-17T11:15:10.398Z,63883
2023-05-17T11:18:18.764Z,88063
2023-05-17T11:21:08.398Z,32257
2023-05-17T11:24:07.759Z,22430
2023-05-17T11:27:07.805Z,41240
2023-05-17T11:30:07.694Z,81697
2023-05-17T11:33:29.591Z,85553
2023-05-17T11:36:07.650Z,45543
2023-05-17T11:39:15.153Z,92837
2023-05-17T11:42:07.872Z,33367
2023-05-17T11:45:07.816Z,52193
2023-05-17T11:48:08.247Z,42167
2023-05-17T11:51:09.265Z,37317
2023-05-17T11:54:07.531Z,86127
2023-05-17T11:57:07.575Z,85750
2023-05-17T12:00:07.782Z,91160
2023-05-17T12:03:07.852Z,47467
2023-05-17T12:06:07.984Z,31847
2023-05-17T12:09:07.709Z,40823
2023-05-17T12:12:07.540Z,78940
2023-05-17T12:15:07.552Z,80120
2023-05-17T12:18:07.940Z,84073
2023-05-17T12:21:07.415Z,19127
2023-05-17T12:24:07.605Z,22640
2023-05-17T12:27:07.545Z,25643
2023-05-17T12:30:07.689Z,80150
2023-05-17T12:33:08.029Z,22400
2023-05-17T12:36:07.561Z,29600
2023-05-17T12:39:07.554Z,20390
2023-05-17T12:42:07.517Z,76393
2023-05-17T12:45:07.611Z,77697
2023-05-17T12:48:07.838Z,24337
2023-05-17T12:51:07.544Z,28563
2023-05-17T12:54:07.544Z,83617
2023-05-17T12:57:07.589Z,83743
2023-05-17T13:00:07.802Z,82187
2023-05-17T13:03:07.873Z,73680
2023-05-17T13:06:07.652Z,70443
2023-05-17T13:09:07.705Z,70993
2023-05-17T13:12:07.672Z,25723
2023-05-17T13:15:07.582Z,20893
2023-05-17T13:18:08.242Z,26063
2023-05-17T13:21:07.587Z,76070
2023-05-17T13:24:07.742Z,68433
2023-05-17T13:27:07.652Z,70937
2023-05-17T13:30:07.635Z,18453
2023-05-17T13:33:08.231Z,43693
2023-05-17T13:36:07.578Z,20970
2023-05-17T13:39:07.600Z,20220
2023-05-17T13:42:07.804Z,62800
2023-05-17T13:45:07.595Z,62063
2023-05-17T13:48:08.134Z,62327
2023-05-17T13:51:07.576Z,22037
2023-05-17T13:54:11.524Z,22150
2023-05-17T13:57:07.765Z,22257
2023-05-17T14:00:07.766Z,65613
2023-05-17T14:03:08.086Z,26790
2023-05-17T14:06:07.874Z,31573
2023-05-17T14:09:07.651Z,60407
2023-05-17T14:12:08.083Z,21050
2023-05-17T14:15:07.629Z,31117
2023-05-17T14:18:07.958Z,56803
2023-05-17T14:21:07.950Z,54137
2023-05-17T14:24:08.154Z,52643
2023-05-17T14:27:07.604Z,34883
2023-05-17T14:30:07.764Z,18857
2023-05-17T14:33:07.726Z,52000
2023-05-17T14:36:07.459Z,51490
2023-05-17T14:39:07.467Z,26830
2023-05-17T14:42:07.485Z,52797
2023-05-17T14:45:07.517Z,52560
2023-05-17T14:48:07.803Z,50883
2023-05-17T14:51:07.452Z,49810
2023-05-17T14:54:07.503Z,46667
2023-05-17T14:57:07.404Z,14680
2023-05-17T15:00:07.818Z,43400
2023-05-17T15:03:08.044Z,46047
2023-05-17T15:06:16.192Z,47463
2023-05-17T15:09:07.476Z,27877
2023-05-17T15:12:07.460Z,47807
2023-05-17T15:15:07.498Z,26783
2023-05-17T15:18:07.746Z,14093
2023-05-17T15:21:07.455Z,16587
2023-05-17T15:24:07.465Z,23077
2023-05-17T15:27:07.929Z,33163
2023-05-17T15:30:07.493Z,37930
2023-05-17T15:33:07.906Z,21803
2023-05-17T15:36:07.620Z,37807
2023-05-17T15:39:07.438Z,37403
2023-05-17T15:42:07.426Z,23230
2023-05-17T15:45:07.427Z,34733
2023-05-17T15:48:07.565Z,34657
2023-05-17T15:51:07.359Z,35357
2023-05-17T15:54:07.389Z,26640
2023-05-17T15:57:07.602Z,34840
2023-05-17T16:00:07.561Z,32960
2023-05-17T16:03:07.626Z,32610
2023-05-17T16:06:07.744Z,31437
2023-05-17T16:09:07.461Z,27447
2023-05-17T16:12:07.469Z,18910
2023-05-17T16:15:07.383Z,12570
2023-05-17T16:18:08.215Z,27863
2023-05-17T16:21:07.395Z,26220
2023-05-17T16:24:09.256Z,26420
2023-05-17T16:27:10.566Z,26953
2023-05-17T16:30:07.424Z,25793
2023-05-17T16:33:10.863Z,24807
2023-05-17T16:36:07.375Z,24370
2023-05-17T16:39:09.463Z,24227
2023-05-17T16:42:07.524Z,8320
2023-05-17T16:45:09.988Z,22603
2023-05-17T16:48:07.626Z,21967
2023-05-17T16:51:07.437Z,20870
2023-05-17T16:54:07.381Z,20047
2023-05-17T16:57:10.453Z,19837
2023-05-17T17:00:07.956Z,19297
2023-05-17T17:03:12.109Z,17250
2023-05-17T17:06:07.463Z,17410
2023-05-17T17:09:10.182Z,16193
2023-05-17T17:12:29.479Z,7553
2023-05-17T17:15:10.105Z,5487
2023-05-17T17:18:07.617Z,5287
2023-05-17T17:21:10.208Z,5093
2023-05-17T17:24:07.719Z,4953
2023-05-17T17:27:07.423Z,4800
2023-05-17T17:30:07.422Z,4657
2023-05-17T17:33:08.325Z,4503
2023-05-17T17:36:07.506Z,4433
2023-05-17T17:39:07.608Z,4437
2023-05-17T17:42:07.579Z,4387
2023-05-17T17:45:07.422Z,4450
2023-05-17T17:48:07.882Z,4053
2023-05-17T17:51:07.422Z,3567
2023-05-17T17:54:07.489Z,3373
2023-05-17T17:57:07.440Z,3160
2023-05-17T18:00:08.346Z,3007
2023-05-17T18:03:08.110Z,2860
2023-05-17T18:06:07.453Z,2793
2023-05-17T18:09:07.383Z,2580
2023-05-17T18:12:07.371Z,2460
2023-05-17T18:15:07.372Z,2370
2023-05-17T18:18:07.758Z,2237
2023-05-17T18:21:07.512Z,2097
2023-05-17T18:24:07.442Z,1950
2023-05-17T18:27:07.593Z,1807
2023-05-17T18:30:07.395Z,1673
2023-05-17T18:33:07.567Z,1527
2023-05-17T18:36:07.464Z,1383
2023-05-17T18:39:07.381Z,1240
2023-05-17T18:42:07.399Z,1090
2023-05-17T18:45:07.433Z,950
2023-05-17T18:48:07.846Z,820
2023-05-17T18:51:07.448Z,707
2023-05-17T18:54:07.431Z,607
2023-05-17T18:57:07.458Z,510
2023-05-17T19:00:07.598Z,427
2023-05-17T19:03:07.865Z,347
2023-05-17T19:06:07.471Z,280
2023-05-17T19:09:07.422Z,220
2023-05-17T19:12:07.331Z,173
2023-05-17T19:15:07.419Z,130
2023-05-17T19:18:07.585Z,97
2023-05-17T19:21:07.370Z,70
2023-05-17T19:24:07.344Z,50
2023-05-17T19:27:07.462Z,33
2023-05-17T19:30:07.430Z,23
2023-05-17T19:33:07.688Z,17
2023-05-17T19:36:07.393Z,10
2023-05-17T19:39:07.378Z,7
2023-05-17T19:42:07.332Z,3
2023-05-17T19:45:07.463Z,3
2023-05-17T19:48:07.565Z,3
2023-05-17T19:51:07.374Z,0
2023-05-17T19:54:07.483Z,0
2023-05-17T19:57:07.413Z,0
2023-05-17T20:00:07.397Z,0
2023-05-17T20:03:07.982Z,0
2023-05-17T20:06:07.394Z,0
2023-05-17T20:09:07.394Z,0
2023-05-17T20:12:07.335Z,0
2023-05-17T20:15:07.334Z,0
2023-05-17T20:18:07.757Z,0
2023-05-17T20:21:07.446Z,0
2023-05-17T20:24:07.564Z,0
2023-05-17T20:27:07.387Z,0
2023-05-17T20:30:07.412Z,0
2023-05-17T20:33:10.602Z,0
2023-05-17T20:36:07.417Z,0
2023-05-17T20:39:07.368Z,0
2023-05-17T20:42:07.451Z,0
2023-05-17T20:45:07.576Z,0
2023-05-17T20:48:07.712Z,0
2023-05-17T20:51:07.421Z,0
2023-05-17T20:54:07.369Z,0
2023-05-17T20:57:07.437Z,0
2023-05-17T21:00:07.674Z,0
2023-05-17T21:03:07.837Z,0
2023-05-17T21:06:07.496Z,0
2023-05-17T21:09:07.378Z,0
2023-05-17T21:12:07.392Z,0
2023-05-17T21:15:23.887Z,0
2023-05-17T21:18:08.809Z,0
2023-05-17T21:21:07.566Z,0
2023-05-17T21:24:07.537Z,0
2023-05-17T21:27:07.350Z,0
2023-05-17T21:30:07.378Z,0
2023-05-17T21:33:07.779Z,0
2023-05-17T21:36:07.305Z,0
2023-05-17T21:39:07.432Z,0
2023-05-17T21:42:07.467Z,0
2023-05-17T21:45:07.400Z,0
2023-05-17T21:48:07.676Z,0
2023-05-17T21:51:07.330Z,0
2023-05-17T21:54:07.373Z,0
2023-05-17T21:57:07.371Z,0
2023-05-17T22:00:07.858Z,0
2023-05-17T22:03:07.875Z,0
2023-05-17T22:06:07.342Z,0
2023-05-17T22:09:07.318Z,0
2023-05-17T22:12:07.437Z,0
2023-05-17T22:15:07.332Z,0
2023-05-17T22:18:07.672Z,0
2023-05-17T22:21:07.380Z,0
2023-05-17T22:24:07.399Z,0
2023-05-17T22:27:07.387Z,0
2023-05-17T22:30:07.618Z,0
2023-05-17T22:33:07.651Z,0
2023-05-17T22:36:07.399Z,0
2023-05-17T22:39:07.278Z,0
2023-05-17T22:42:07.308Z,0
2023-05-17T22:45:07.387Z,0
2023-05-17T22:48:07.844Z,0
2023-05-17T22:51:07.476Z,0
2023-05-17T22:54:07.360Z,0
2023-05-17T22:57:07.415Z,0
2023-05-17T23:00:07.413Z,0
2023-05-17T23:03:07.714Z,0
2023-05-17T23:06:07.620Z,0
2023-05-17T23:09:07.320Z,0
2023-05-17T23:12:07.430Z,0
2023-05-17T23:15:07.512Z,0
2023-05-17T23:18:08.033Z,0
2023-05-17T23:21:07.323Z,0
2023-05-17T23:24:07.371Z,0
2023-05-17T23:27:07.397Z,0
2023-05-17T23:30:07.402Z,0
2023-05-17T23:33:07.557Z,0
2023-05-17T23:36:07.426Z,0
2023-05-17T23:39:07.472Z,0
2023-05-17T23:42:07.342Z,0
2023-05-17T23:45:07.445Z,0
2023-05-17T23:48:07.970Z,0
2023-05-17T23:51:07.376Z,0
2023-05-17T23:54:07.311Z,0
2023-05-17T23:57:07.409Z,0
